Rickmers Dalian — V7FS3 — position and weather

sailwx.info

Track history (hours):
 
Tides and Currents Weather Stations Pressure Air Temp Water Temp Dewpoint Dewpoint Depression Visibility Wind Speed Wind Dir Waves Ship Positions

Rickmers Dalian

Last reported at 2016-Sep-27 10:21 UTC. Time now 2016-Oct-01 17:16 UTC.
Position N 45°02' E 014°14'.

Length 193 m; beam 27.8 m; draft 11.2 m.

Type: Ship. MMSI: 538090156.

Date/timePositionNaut miles runAvg speedWind from/ knotsBaromVisibWave heightAir tempDewpointWater temp
2016-Sep-27 10:21N 45°02' E 014°14'40312.7
2016-Sep-26 02:33N 38°24' E 015°34'1717.0
2016-Sep-26 01:33N 38°36' E 015°19'2019.5
2016-Sep-26 00:31N 38°51' E 015°01'6919.5
2016-Sep-25 21:00N 39°36' E 013°54'31719.3 060 / 91018.0 5.4 0.523.015.224.0
2016-Sep-25 04:33N 43°38' E 009°19'5012.5
2016-Sep-25 00:33N 44°24' E 008°53'0 0.0
2016-Sep-24 22:33N 44°24' E 008°53'0 0.0
2016-Sep-24 21:33N 44°24' E 008°53'0 0.0
2016-Sep-24 19:33N 44°24' E 008°53'0 0.0
2016-Sep-24 18:33N 44°24' E 008°53'0 0.0
2016-Sep-24 17:33N 44°24' E 008°53'0 0.0
2016-Sep-24 16:33N 44°24' E 008°53'0 0.0
2016-Sep-24 14:33N 44°24' E 008°53'0 0.0
2016-Sep-24 12:33N 44°24' E 008°53'0 0.0
2016-Sep-24 10:30N 44°24' E 008°53'0 0.0
2016-Sep-24 09:33N 44°24' E 008°53'0 0.0
2016-Sep-24 03:33N 44°24' E 008°53'5 4.5
2016-Sep-24 02:34N 44°21' E 008°58'10 9.5
2016-Sep-24 01:33N 44°14' E 008°50'10 9.9
2016-Sep-24 00:34N 44°07' E 008°40'5110.1
2016-Sep-23 19:30N 43°32' E 007°49'7011.7
2016-Sep-23 13:33N 42°46' E 006°37'17011.8
2016-Sep-22 23:08N 40°54' E 003°45'3112.2
2016-Sep-22 20:33N 40°34' E 003°13'9612.0
2016-Sep-22 12:34N 39°31' E 001°39'10512.4
2016-Sep-22 04:07N 38°13' E 000°09'813.6
2016-Sep-22 03:33N 38°07' E 000°03'4113.6
2016-Sep-22 00:33N 37°35' W 000°29'1413.8
2016-Sep-21 23:33N 37°25' W 000°42'1413.9
2016-Sep-21 22:33N 37°16' W 000°55'4013.4
2016-Sep-21 19:33N 36°49' W 001°33'4013.3
2016-Sep-21 16:33N 36°23' W 002°10'15814.4
2016-Sep-21 05:33N 35°59' W 005°23'3515.1
2016-Sep-21 03:13N 35°53' W 006°06'1614.6
2016-Sep-21 02:09N 35°56' W 006°25'12814.9
2016-Sep-20 17:33N 36°30' W 008°58'4113.6
2016-Sep-20 14:33N 36°58' W 009°35'1514.9
2016-Sep-20 13:33N 37°12' W 009°40'4615.1
2016-Sep-20 10:30N 37°57' W 009°53'3015.5
2016-Sep-20 08:33N 38°26' W 010°02'1616.4
2016-Sep-20 07:33N 38°42' W 010°07'1716.5
2016-Sep-20 06:33N 38°59' W 010°07'38615.7
2016-Sep-19 06:00N 45°18' W 008°30'32315.8 160 / 101024.0 0.1 1.017.016.719.0
2016-Sep-18 09:33N 49°39' W 003°48'13516.7
2016-Sep-18 01:28N 50°25' W 000°30'1617.6
2016-Sep-18 00:33N 50°29' W 000°06'4715.1
2016-Sep-17 21:27N 50°50' E 001°00'1516.9
2016-Sep-17 20:33N 51°00' E 001°18'2519.2
2016-Sep-17 19:16N 51°16' E 001°48'11215.5
2016-Sep-17 12:04N 52°44' E 003°39'2616.7
2016-Sep-17 10:31N 53°03' E 004°09'  
Track history (hours):
 
Tides and Currents Weather Stations Pressure Air Temp Water Temp Dewpoint Dewpoint Depression Visibility Wind Speed Wind Dir Waves Ship Positions

Rickmers Dalian

Last reported at 2016-Sep-27 10:21 UTC. Time now 2016-Oct-01 17:16 UTC.
Position N 45°02' E 014°14'.

Length 193 m; beam 27.8 m; draft 11.2 m.

Type: Ship. MMSI: 538090156.

Date/timePositionNaut miles runAvg speedWind from/ knotsBaromVisibWave heightAir tempDewpointWater temp
2016-Sep-27 10:21N 45°02' E 014°14'40312.7
2016-Sep-26 02:33N 38°24' E 015°34'1717.0
2016-Sep-26 01:33N 38°36' E 015°19'2019.5
2016-Sep-26 00:31N 38°51' E 015°01'6919.5
2016-Sep-25 21:00N 39°36' E 013°54'31719.3 060 / 91018.0 5.4 0.523.015.224.0
2016-Sep-25 04:33N 43°38' E 009°19'5012.5
2016-Sep-25 00:33N 44°24' E 008°53'0 0.0
2016-Sep-24 22:33N 44°24' E 008°53'0 0.0
2016-Sep-24 21:33N 44°24' E 008°53'0 0.0
2016-Sep-24 19:33N 44°24' E 008°53'0 0.0
2016-Sep-24 18:33N 44°24' E 008°53'0 0.0
2016-Sep-24 17:33N 44°24' E 008°53'0 0.0
2016-Sep-24 16:33N 44°24' E 008°53'0 0.0
2016-Sep-24 14:33N 44°24' E 008°53'0 0.0
2016-Sep-24 12:33N 44°24' E 008°53'0 0.0
2016-Sep-24 10:30N 44°24' E 008°53'0 0.0
2016-Sep-24 09:33N 44°24' E 008°53'0 0.0
2016-Sep-24 03:33N 44°24' E 008°53'5 4.5
2016-Sep-24 02:34N 44°21' E 008°58'10 9.5
2016-Sep-24 01:33N 44°14' E 008°50'10 9.9
2016-Sep-24 00:34N 44°07' E 008°40'5110.1
2016-Sep-23 19:30N 43°32' E 007°49'7011.7
2016-Sep-23 13:33N 42°46' E 006°37'17011.8
2016-Sep-22 23:08N 40°54' E 003°45'3112.2
2016-Sep-22 20:33N 40°34' E 003°13'9612.0
2016-Sep-22 12:34N 39°31' E 001°39'10512.4
2016-Sep-22 04:07N 38°13' E 000°09'813.6
2016-Sep-22 03:33N 38°07' E 000°03'4113.6
2016-Sep-22 00:33N 37°35' W 000°29'1413.8
2016-Sep-21 23:33N 37°25' W 000°42'1413.9
2016-Sep-21 22:33N 37°16' W 000°55'4013.4
2016-Sep-21 19:33N 36°49' W 001°33'4013.3
2016-Sep-21 16:33N 36°23' W 002°10'15814.4
2016-Sep-21 05:33N 35°59' W 005°23'3515.1
2016-Sep-21 03:13N 35°53' W 006°06'1614.6
2016-Sep-21 02:09N 35°56' W 006°25'12814.9
2016-Sep-20 17:33N 36°30' W 008°58'4113.6
2016-Sep-20 14:33N 36°58' W 009°35'1514.9
2016-Sep-20 13:33N 37°12' W 009°40'4615.1
2016-Sep-20 10:30N 37°57' W 009°53'3015.5
2016-Sep-20 08:33N 38°26' W 010°02'1616.4
2016-Sep-20 07:33N 38°42' W 010°07'1716.5
2016-Sep-20 06:33N 38°59' W 010°07'38615.7
2016-Sep-19 06:00N 45°18' W 008°30'32315.8 160 / 101024.0 0.1 1.017.016.719.0
2016-Sep-18 09:33N 49°39' W 003°48'13516.7
2016-Sep-18 01:28N 50°25' W 000°30'1617.6
2016-Sep-18 00:33N 50°29' W 000°06'4715.1
2016-Sep-17 21:27N 50°50' E 001°00'1516.9
2016-Sep-17 20:33N 51°00' E 001°18'2519.2
2016-Sep-17 19:16N 51°16' E 001°48'11215.5
2016-Sep-17 12:04N 52°44' E 003°39'2616.7
2016-Sep-17 10:31N 53°03' E 004°09'  

Dump ship's entire track history